Time;durP1;ratioP1;P1;durP2;ratioP2;P2;SDS_P1;SDS_P2;PMS_P1;PMS_P2;Temp;Humidity;BMP_temperature;BMP_pressure;BME280_temperature;BME280_humidity;BME280_pressure;Samples;Min_cycle;Max_cycle;Signal;HPM_P1;HPM_P2
2021/11/19 00:00:48;;;;;;;6.77;3.90;;;5.50;92.20;;;;;;5045595;28;20210;-80
2021/11/19 00:03:15;;;;;;;6.63;3.80;;;5.50;92.20;;;;;;5042936;28;20187;-78
2021/11/19 00:05:43;;;;;;;5.23;3.53;;;5.50;92.20;;;;;;5045908;28;20971;-78
2021/11/19 00:08:10;;;;;;;6.07;3.70;;;5.50;92.20;;;;;;5044958;28;20334;-79
2021/11/19 00:10:36;;;;;;;3.40;2.93;;;5.50;92.10;;;;;;5044744;28;20200;-78
2021/11/19 00:13:03;;;;;;;3.00;2.87;;;5.60;92.00;;;;;;5045569;28;20249;-78
2021/11/19 00:15:30;;;;;;;3.43;3.23;;;5.60;91.90;;;;;;5047680;28;20182;-79
2021/11/19 00:17:56;;;;;;;4.00;3.10;;;5.60;91.80;;;;;;5049151;28;20212;-79
2021/11/19 00:20:28;;;;;;;3.40;3.10;;;5.60;91.70;;;;;;5047624;28;20183;-79
2021/11/19 00:23:02;;;;;;;4.20;3.17;;;5.60;91.80;;;;;;5047127;28;20709;-79
2021/11/19 00:25:29;;;;;;;5.30;3.60;;;5.60;91.50;;;;;;5045527;28;20191;-79
2021/11/19 00:27:55;;;;;;;3.93;3.53;;;5.70;91.40;;;;;;5049410;28;20282;-78
2021/11/19 00:30:23;;;;;;;3.80;3.13;;;5.70;91.20;;;;;;5048416;28;20225;-80
2021/11/19 00:32:49;;;;;;;5.27;3.73;;;5.70;91.00;;;;;;5049503;28;20184;-79
2021/11/19 00:35:16;;;;;;;3.97;3.03;;;5.70;90.80;;;;;;5046544;28;20206;-79
2021/11/19 00:37:44;;;;;;;4.07;3.53;;;5.80;90.70;;;;;;5048328;28;20207;-79
2021/11/19 00:40:15;;;;;;;5.67;4.10;;;5.80;90.60;;;;;;5047156;28;20184;-79
2021/11/19 00:42:41;;;;;;;4.53;3.43;;;5.80;90.50;;;;;;5046758;28;20187;-79
2021/11/19 00:45:07;;;;;;;3.90;3.30;;;5.80;90.40;;;;;;5046918;28;20183;-79
2021/11/19 00:47:33;;;;;;;6.00;4.43;;;5.90;90.10;;;;;;5048530;28;20222;-79
2021/11/19 00:50:00;;;;;;;4.20;3.37;;;5.90;90.00;;;;;;5047938;28;20255;-79
2021/11/19 00:52:26;;;;;;;5.70;3.77;;;5.90;89.70;;;;;;5049641;28;20184;-79
2021/11/19 00:54:53;;;;;;;4.50;2.97;;;5.90;89.60;;;;;;5045406;28;20541;-78
2021/11/19 00:57:21;;;;;;;3.87;3.37;;;5.90;89.50;;;;;;5046391;28;20246;-78
2021/11/19 00:59:47;;;;;;;4.80;3.20;;;5.90;89.50;;;;;;5047805;28;20183;-78
2021/11/19 01:02:24;;;;;;;6.87;2.90;;;5.90;89.50;;;;;;5046713;28;20191;-79
2021/11/19 01:04:52;;;;;;;3.20;3.00;;;5.90;89.30;;;;;;5048108;28;20262;-78
2021/11/19 01:07:20;;;;;;;6.70;3.90;;;5.90;89.30;;;;;;5049936;28;20187;-78
2021/11/19 01:09:53;;;;;;;5.20;3.93;;;5.90;89.50;;;;;;5045180;28;20180;-78
2021/11/19 01:12:22;;;;;;;8.67;3.80;;;5.90;89.60;;;;;;5047915;28;20191;-80
2021/11/19 01:14:55;;;;;;;3.20;3.07;;;5.90;89.70;;;;;;5044822;28;20180;-80
2021/11/19 01:17:31;;;;;;;3.57;2.97;;;5.80;89.80;;;;;;5046712;28;20216;-79
2021/11/19 01:20:25;;;;;;;3.97;3.67;;;5.80;89.80;;;;;;5046661;28;20189;-79
2021/11/19 01:22:54;;;;;;;5.43;3.73;;;5.80;89.70;;;;;;5046516;28;20214;-79
2021/11/19 01:25:23;;;;;;;5.00;3.60;;;5.80;89.80;;;;;;5048020;28;20262;-80
2021/11/19 01:27:49;;;;;;;3.13;2.83;;;5.90;89.80;;;;;;5046311;28;20673;-78
2021/11/19 01:30:26;;;;;;;4.33;3.97;;;5.90;90.00;;;;;;5049251;28;20187;-78
2021/11/19 01:32:52;;;;;;;5.43;4.13;;;5.80;90.10;;;;;;5047608;28;20183;-78
2021/11/19 01:35:17;;;;;;;3.50;3.20;;;5.90;90.10;;;;;;5046273;28;20180;-79
2021/11/19 01:37:44;;;;;;;6.63;3.30;;;5.90;90.10;;;;;;5044163;28;20226;-78
2021/11/19 01:40:12;;;;;;;4.17;3.17;;;5.80;90.20;;;;;;5046986;28;20180;-78
2021/11/19 01:42:52;;;;;;;7.67;3.57;;;5.80;90.30;;;;;;5046620;28;20681;-79
2021/11/19 01:45:24;;;;;;;3.70;3.10;;;5.80;90.40;;;;;;5044380;28;20406;-78
2021/11/19 01:47:56;;;;;;;5.87;3.87;;;5.80;90.50;;;;;;5047517;28;20195;-79
2021/11/19 01:50:40;;;;;;;3.83;3.63;;;5.80;90.70;;;;;;5047992;28;20246;-79
2021/11/19 01:53:21;;;;;;;6.03;3.57;;;5.80;90.60;;;;;;5047376;28;20179;-79
2021/11/19 01:56:01;;;;;;;3.20;2.93;;;5.90;90.70;;;;;;5043973;28;20213;-79
2021/11/19 01:58:44;;;;;;;3.03;2.83;;;5.90;90.50;;;;;;5045361;28;20298;-79
2021/11/19 02:01:15;;;;;;;2.67;2.53;;;5.90;90.30;;;;;;5045614;28;20270;-80
2021/11/19 02:03:47;;;;;;;2.60;2.40;;;5.90;90.20;;;;;;5047688;28;20252;-79
2021/11/19 02:06:24;;;;;;;5.77;2.47;;;5.90;90.20;;;;;;5047078;28;20203;-79
2021/11/19 02:08:50;;;;;;;4.47;3.33;;;5.90;90.30;;;;;;5045453;28;20214;-79
2021/11/19 02:11:42;;;;;;;3.80;2.97;;;5.80;90.50;;;;;;5048627;28;20200;-79
2021/11/19 02:14:35;;;;;;;3.43;3.03;;;5.80;90.50;;;;;;5047594;28;20183;-79
2021/11/19 02:17:02;;;;;;;2.00;1.90;;;5.80;90.70;;;;;;5006567;28;20207;-79
2021/11/19 02:19:40;;;;;;;2.50;2.40;;;5.80;90.60;;;;;;5023175;28;20283;-79
2021/11/19 02:22:24;;;;;;;2.17;2.00;;;5.80;90.70;;;;;;5007582;28;20232;-79
2021/11/19 02:25:03;;;;;;;3.73;2.53;;;5.80;90.80;;;;;;5007150;28;20694;-80
2021/11/19 02:27:39;;;;;;;4.10;2.27;;;5.80;91.00;;;;;;5022118;28;20830;-79
2021/11/19 02:30:18;;;;;;;2.87;2.53;;;5.70;91.10;;;;;;5023170;28;20234;-79
2021/11/19 02:32:51;;;;;;;2.03;1.70;;;5.70;91.20;;;;;;5006317;28;20180;-79
2021/11/19 02:35:34;;;;;;;2.33;2.00;;;5.70;91.40;;;;;;5019880;28;20701;-79
2021/11/19 02:38:10;;;;;;;2.50;2.33;;;5.70;91.40;;;;;;5022069;28;20215;-79
2021/11/19 02:40:38;;;;;;;2.23;2.00;;;5.70;91.30;;;;;;5004757;28;20207;-79
2021/11/19 02:43:17;;;;;;;2.63;2.17;;;5.70;91.20;;;;;;5019939;28;20291;-79
2021/11/19 02:45:46;;;;;;;3.37;2.43;;;5.80;91.00;;;;;;5002892;28;20191;-78
2021/11/19 02:48:17;;;;;;;3.77;2.23;;;5.70;91.00;;;;;;5020434;28;20685;-80
2021/11/19 02:50:44;;;;;;;2.87;2.53;;;5.80;90.90;;;;;;5001818;28;20279;-80
2021/11/19 02:53:12;;;;;;;2.43;2.33;;;5.80;90.70;;;;;;5024605;28;20286;-79
2021/11/19 02:55:41;;;;;;;2.70;2.40;;;5.80;90.50;;;;;;5045256;28;20171;-79
2021/11/19 02:58:10;;;;;;;2.63;2.07;;;5.80;90.10;;;;;;5041230;28;20211;-80
2021/11/19 03:00:42;;;;;;;2.63;2.43;;;5.80;89.60;;;;;;5043081;28;20333;-81
2021/11/19 03:03:08;;;;;;;2.53;2.27;;;5.80;89.60;;;;;;5044178;28;20175;-80
2021/11/19 03:05:33;;;;;;;3.67;3.37;;;5.80;89.60;;;;;;5045688;28;20234;-81
2021/11/19 03:07:59;;;;;;;2.70;2.50;;;5.80;89.20;;;;;;5043604;28;20330;-79
2021/11/19 03:10:33;;;;;;;2.20;2.10;;;5.80;88.80;;;;;;5043215;28;20202;-79
2021/11/19 03:13:01;;;;;;;3.80;2.60;;;5.90;88.60;;;;;;5045597;28;20245;-79
2021/11/19 03:15:34;;;;;;;2.50;2.33;;;5.90;88.20;;;;;;5045593;28;20218;-79
2021/11/19 03:18:00;;;;;;;3.30;3.00;;;5.90;88.00;;;;;;5045102;28;20254;-79
2021/11/19 03:20:26;;;;;;;3.63;2.83;;;5.90;87.70;;;;;;5045985;28;20184;-81
2021/11/19 03:22:54;;;;;;;2.70;2.60;;;5.90;87.20;;;;;;5043786;28;20180;-79
2021/11/19 03:25:23;;;;;;;3.43;3.13;;;5.90;86.90;;;;;;5044150;28;20290;-79
2021/11/19 03:27:49;;;;;;;4.80;2.90;;;5.90;86.60;;;;;;5044914;28;20247;-79
2021/11/19 03:30:18;;;;;;;4.77;3.23;;;5.90;86.80;;;;;;5047648;28;20217;-78
2021/11/19 03:32:45;;;;;;;2.83;2.63;;;5.90;86.80;;;;;;5041446;28;20171;-80
2021/11/19 03:35:14;;;;;;;2.73;2.53;;;5.90;86.60;;;;;;5046283;28;20180;-78
2021/11/19 03:37:46;;;;;;;3.30;3.00;;;5.80;86.50;;;;;;5045142;28;20692;-79
2021/11/19 03:40:15;;;;;;;3.43;3.10;;;5.80;86.50;;;;;;5044782;28;20199;-78
2021/11/19 03:42:40;;;;;;;3.80;2.57;;;5.80;86.50;;;;;;5045630;28;20187;-79
2021/11/19 03:45:10;;;;;;;3.40;2.67;;;5.80;86.20;;;;;;5045335;28;20184;-79
2021/11/19 03:47:41;;;;;;;2.67;2.50;;;5.90;85.80;;;;;;5044156;28;20187;-80
2021/11/19 03:50:21;;;;;;;4.00;3.07;;;5.90;85.20;;;;;;5051417;28;20171;-80
2021/11/19 03:52:48;;;;;;;2.93;2.73;;;5.90;84.80;;;;;;5049014;28;20260;-80
2021/11/19 03:55:17;;;;;;;3.17;2.87;;;5.90;84.10;;;;;;5049672;28;20180;-80
2021/11/19 03:57:43;;;;;;;3.43;3.13;;;5.90;84.00;;;;;;5044721;28;20222;-80
2021/11/19 04:00:15;;;;;;;4.87;3.23;;;6.00;84.10;;;;;;5048326;28;20183;-80
2021/11/19 04:02:41;;;;;;;3.07;2.77;;;6.00;84.10;;;;;;5048082;28;20627;-80
2021/11/19 04:05:07;;;;;;;3.40;3.20;;;5.90;84.20;;;;;;5047481;28;20944;-79
2021/11/19 04:07:33;;;;;;;4.67;3.10;;;5.90;84.30;;;;;;5048823;28;20191;-80
2021/11/19 04:09:59;;;;;;;3.73;3.43;;;5.90;84.30;;;;;;5046909;28;20187;-79
2021/11/19 04:12:24;;;;;;;4.50;3.57;;;5.90;84.20;;;;;;5048687;28;20664;-79
2021/11/19 04:14:51;;;;;;;4.43;3.50;;;6.00;84.30;;;;;;5048761;28;20184;-79
2021/11/19 04:17:18;;;;;;;3.63;3.27;;;6.00;84.30;;;;;;5045131;28;20203;-80
2021/11/19 04:19:43;;;;;;;3.53;3.33;;;6.00;84.30;;;;;;5047788;28;20195;-80
2021/11/19 04:22:12;;;;;;;6.40;3.27;;;6.00;84.50;;;;;;5048183;28;20859;-80
2021/11/19 04:24:48;;;;;;;3.20;3.00;;;5.90;84.80;;;;;;5047947;28;20202;-79
2021/11/19 04:27:15;;;;;;;5.27;3.40;;;5.90;84.90;;;;;;5047318;28;20878;-79
2021/11/19 04:29:41;;;;;;;4.00;3.70;;;5.90;85.00;;;;;;5048417;28;20214;-80
2021/11/19 04:32:09;;;;;;;6.93;3.93;;;5.90;84.90;;;;;;5046412;28;20199;-79
2021/11/19 04:34:38;;;;;;;3.73;3.33;;;5.90;85.10;;;;;;5050148;28;20188;-79
2021/11/19 04:37:04;;;;;;;4.13;3.13;;;5.90;85.10;;;;;;5047165;28;20198;-80
2021/11/19 04:39:30;;;;;;;4.23;3.10;;;5.90;85.10;;;;;;5044612;28;20366;-79
2021/11/19 04:41:56;;;;;;;3.20;2.90;;;5.90;85.10;;;;;;5047429;28;20643;-80
2021/11/19 04:44:22;;;;;;;3.77;3.47;;;5.90;85.10;;;;;;5049509;28;20274;-80
2021/11/19 04:46:48;;;;;;;3.30;3.00;;;5.90;84.80;;;;;;5046191;28;20179;-79
2021/11/19 04:49:15;;;;;;;3.70;3.37;;;5.90;84.70;;;;;;5047553;28;20640;-80
2021/11/19 04:51:42;;;;;;;5.20;3.03;;;5.90;84.50;;;;;;5047481;28;20175;-79
2021/11/19 04:54:10;;;;;;;3.57;3.23;;;5.90;84.10;;;;;;5048572;28;20278;-80
2021/11/19 04:56:37;;;;;;;8.10;3.53;;;5.90;84.00;;;;;;5046511;28;20263;-80
2021/11/19 04:59:05;;;;;;;5.27;3.47;;;6.00;83.80;;;;;;5044371;28;20277;-80
2021/11/19 05:01:34;;;;;;;3.73;2.87;;;6.00;83.80;;;;;;5045145;28;20171;-80
2021/11/19 05:04:00;;;;;;;3.43;3.13;;;6.00;83.50;;;;;;5075735;28;20207;-79
2021/11/19 05:06:26;;;;;;;5.93;3.20;;;5.90;83.30;;;;;;5047150;28;20659;-80
2021/11/19 05:08:53;;;;;;;4.13;3.50;;;6.00;83.20;;;;;;5048562;28;20188;-79
2021/11/19 05:11:23;;;;;;;3.00;2.70;;;6.00;82.90;;;;;;5047344;28;20282;-79
2021/11/19 05:13:50;;;;;;;4.50;3.27;;;6.00;82.70;;;;;;5044973;28;20184;-79
2021/11/19 05:16:16;;;;;;;3.80;2.67;;;6.00;82.40;;;;;;5047272;28;20229;-78
2021/11/19 05:18:44;;;;;;;3.33;2.60;;;6.00;82.30;;;;;;5048303;28;20302;-79
2021/11/19 05:21:12;;;;;;;3.90;2.67;;;6.00;82.00;;;;;;5048514;28;20183;-79
2021/11/19 05:23:39;;;;;;;5.57;3.07;;;5.90;82.00;;;;;;5047293;28;20559;-78
2021/11/19 05:26:05;;;;;;;4.93;3.17;;;5.90;82.00;;;;;;5045716;28;20184;-79
2021/11/19 05:28:31;;;;;;;2.70;2.50;;;5.90;81.40;;;;;;5046434;28;20206;-79
2021/11/19 05:30:58;;;;;;;4.60;3.27;;;5.90;81.20;;;;;;5045406;28;20188;-79
2021/11/19 05:33:26;;;;;;;2.47;2.37;;;5.90;81.00;;;;;;5044533;28;20195;-75
2021/11/19 05:35:53;;;;;;;4.20;2.70;;;6.00;81.00;;;;;;5047149;28;20237;-76
2021/11/19 05:38:21;;;;;;;2.73;2.47;;;5.90;80.60;;;;;;5047590;28;20611;-76
2021/11/19 05:40:47;;;;;;;3.27;2.83;;;5.90;80.70;;;;;;5044404;28;20191;-75
2021/11/19 05:43:13;;;;;;;3.07;2.80;;;5.90;80.20;;;;;;5046314;28;20183;-76
2021/11/19 05:45:39;;;;;;;2.87;2.67;;;5.90;80.10;;;;;;5044506;28;20626;-76
2021/11/19 05:48:07;;;;;;;3.00;2.80;;;5.90;80.10;;;;;;5045934;28;20187;-76
2021/11/19 05:50:35;;;;;;;3.23;2.97;;;5.90;80.60;;;;;;5045821;28;20181;-76
2021/11/19 05:53:02;;;;;;;3.73;2.67;;;5.90;80.60;;;;;;5045250;28;20179;-75
2021/11/19 05:55:31;;;;;;;2.33;2.23;;;5.90;79.80;;;;;;5044312;28;20211;-77
2021/11/19 05:57:57;;;;;;;2.93;2.73;;;5.90;79.60;;;;;;5044256;28;20246;-77
2021/11/19 06:00:33;;;;;;;2.00;1.90;;;5.90;79.50;;;;;;5054651;28;20708;-76
2021/11/19 06:02:59;;;;;;;6.47;3.50;;;5.90;79.30;;;;;;5062327;28;20211;-75
2021/11/19 06:05:25;;;;;;;3.13;2.37;;;5.90;79.00;;;;;;5070215;28;20178;-76
2021/11/19 06:07:51;;;;;;;2.10;2.03;;;5.90;78.40;;;;;;5074594;28;20239;-76
2021/11/19 06:10:23;;;;;;;2.17;1.97;;;5.90;78.30;;;;;;5073422;28;20194;-77
2021/11/19 06:12:57;;;;;;;2.33;1.60;;;5.90;77.70;;;;;;5073690;28;20176;-77
2021/11/19 06:15:27;;;;;;;2.87;2.60;;;6.00;77.70;;;;;;5073382;28;20158;-76
2021/11/19 06:18:00;;;;;;;5.70;2.23;;;6.00;77.20;;;;;;5073118;28;20206;-76
2021/11/19 06:20:33;;;;;;;4.73;1.70;;;6.00;76.80;;;;;;5055625;28;20184;-76
2021/11/19 06:23:07;;;;;;;2.70;2.07;;;6.10;76.60;;;;;;5047030;28;20267;-76
2021/11/19 06:25:35;;;;;;;3.20;2.90;;;6.10;76.50;;;;;;5049636;28;20266;-76
2021/11/19 06:28:05;;;;;;;2.73;2.47;;;6.10;76.40;;;;;;5062676;28;20224;-77
2021/11/19 06:30:31;;;;;;;3.73;2.97;;;6.10;76.40;;;;;;5060670;28;20171;-78
2021/11/19 06:32:58;;;;;;;4.20;2.40;;;6.20;76.50;;;;;;5060370;28;20361;-78
2021/11/19 06:35:24;;;;;;;3.57;2.53;;;6.20;76.70;;;;;;5047864;28;20213;-78
2021/11/19 06:37:50;;;;;;;3.63;2.27;;;6.20;76.80;;;;;;5047382;28;20214;-77
2021/11/19 06:40:22;;;;;;;2.63;2.50;;;6.20;77.10;;;;;;5046981;28;20257;-78
2021/11/19 06:42:48;;;;;;;4.97;2.13;;;6.20;76.90;;;;;;5044057;28;20918;-77
2021/11/19 06:45:15;;;;;;;3.87;2.90;;;6.20;77.00;;;;;;5044501;28;20693;-76
2021/11/19 06:47:45;;;;;;;5.53;2.93;;;6.20;77.20;;;;;;5044031;28;20184;-75
2021/11/19 06:50:15;;;;;;;2.20;1.90;;;6.20;77.40;;;;;;5045511;28;20186;-77
2021/11/19 06:52:41;;;;;;;5.20;2.37;;;6.20;77.60;;;;;;5044556;28;20183;-76
2021/11/19 06:55:09;;;;;;;2.60;2.40;;;6.30;77.50;;;;;;5044922;28;20249;-74
2021/11/19 06:57:35;;;;;;;4.00;2.93;;;6.30;77.60;;;;;;5044622;28;20230;-74
2021/11/19 07:00:03;;;;;;;4.80;2.30;;;6.30;77.80;;;;;;5045481;28;20188;-74
2021/11/19 07:02:29;;;;;;;3.00;2.87;;;6.30;77.80;;;;;;5044093;28;20255;-74
2021/11/19 07:04:54;;;;;;;2.13;1.87;;;6.40;77.90;;;;;;5044988;28;20175;-74
2021/11/19 07:07:20;;;;;;;3.13;2.67;;;6.40;77.80;;;;;;5044783;28;20215;-74
2021/11/19 07:09:46;;;;;;;3.20;2.13;;;6.40;77.80;;;;;;5044550;28;20208;-74
2021/11/19 07:12:14;;;;;;;3.87;2.33;;;6.40;77.80;;;;;;5045120;28;20202;-74
2021/11/19 07:14:40;;;;;;;2.57;2.30;;;6.40;77.70;;;;;;5043434;28;20182;-75
2021/11/19 07:17:07;;;;;;;5.13;3.10;;;6.50;77.70;;;;;;5044410;28;20604;-75
2021/11/19 07:19:35;;;;;;;2.70;2.50;;;6.50;77.70;;;;;;5042567;28;20180;-75
2021/11/19 07:22:01;;;;;;;2.47;2.27;;;6.50;77.80;;;;;;5043230;28;20245;-75
2021/11/19 07:24:27;;;;;;;2.83;2.63;;;6.60;77.90;;;;;;5046013;28;20290;-75
2021/11/19 07:26:54;;;;;;;3.70;3.20;;;6.60;78.00;;;;;;5046578;28;20233;-75
2021/11/19 07:29:20;;;;;;;6.67;3.23;;;6.60;78.10;;;;;;5046298;28;20186;-75
2021/11/19 07:31:46;;;;;;;2.17;2.10;;;6.50;78.10;;;;;;5042278;28;20260;-75
2021/11/19 07:34:12;;;;;;;2.30;2.10;;;6.40;78.40;;;;;;5044033;28;20196;-75
2021/11/19 07:36:38;;;;;;;2.60;2.40;;;6.40;78.80;;;;;;5046167;28;20579;-75
2021/11/19 07:39:06;;;;;;;2.13;2.00;;;6.30;79.00;;;;;;5044909;28;20715;-74
2021/11/19 07:41:33;;;;;;;4.33;2.27;;;6.30;79.30;;;;;;5045576;28;20191;-75
2021/11/19 07:43:59;;;;;;;3.77;3.23;;;6.30;79.30;;;;;;5045920;28;20182;-74
2021/11/19 07:46:27;;;;;;;2.90;2.63;;;6.40;79.50;;;;;;5046601;28;20755;-75
2021/11/19 07:48:54;;;;;;;4.97;3.37;;;6.40;79.50;;;;;;5045244;28;20183;-75
2021/11/19 07:51:23;;;;;;;3.33;2.87;;;6.40;79.40;;;;;;5047571;28;20258;-75
2021/11/19 07:53:51;;;;;;;3.10;2.90;;;6.50;79.50;;;;;;5047917;28;20301;-75
2021/11/19 07:56:19;;;;;;;3.70;2.70;;;6.50;79.40;;;;;;5046702;28;20186;-75
2021/11/19 07:58:46;;;;;;;6.83;2.83;;;6.60;79.20;;;;;;5043289;28;21082;-75
2021/11/19 08:01:12;;;;;;;3.40;2.90;;;6.60;79.10;;;;;;5046069;28;20280;-75
2021/11/19 08:03:39;;;;;;;5.37;2.63;;;6.60;79.10;;;;;;5044572;28;20180;-76
2021/11/19 08:06:06;;;;;;;3.47;2.60;;;6.60;79.30;;;;;;5045253;28;20241;-75
2021/11/19 08:08:35;;;;;;;2.80;2.70;;;6.60;79.40;;;;;;5044540;28;20251;-75
2021/11/19 08:11:03;;;;;;;3.63;2.97;;;6.60;79.30;;;;;;5046194;28;20199;-75
2021/11/19 08:13:30;;;;;;;3.03;2.77;;;6.70;79.40;;;;;;5045986;28;20206;-75
2021/11/19 08:15:56;;;;;;;5.27;2.90;;;6.80;79.30;;;;;;5045636;28;20184;-75
2021/11/19 08:18:29;;;;;;;3.60;2.90;;;6.90;78.90;;;;;;5044676;28;20284;-75
2021/11/19 08:20:56;;;;;;;3.27;2.80;;;7.00;78.80;;;;;;5042543;28;20172;-75
2021/11/19 08:23:33;;;;;;;5.77;3.20;;;7.10;78.60;;;;;;5046698;28;20180;-75
2021/11/19 08:26:00;;;;;;;3.10;2.90;;;7.20;78.50;;;;;;5045046;28;20176;-75
2021/11/19 08:28:28;;;;;;;3.53;2.90;;;7.30;78.10;;;;;;5045380;28;20188;-75
2021/11/19 08:30:54;;;;;;;2.87;2.67;;;7.40;78.00;;;;;;5046902;28;20262;-75
2021/11/19 08:33:20;;;;;;;7.37;3.07;;;7.40;77.70;;;;;;5043993;28;20259;-75
2021/11/19 08:35:46;;;;;;;2.67;2.47;;;7.40;77.60;;;;;;5044994;28;20184;-75
2021/11/19 08:38:15;;;;;;;3.30;3.10;;;7.40;77.80;;;;;;5043475;28;20223;-76
2021/11/19 08:40:45;;;;;;;3.67;2.63;;;7.40;77.70;;;;;;5043809;28;20719;-75
2021/11/19 08:43:15;;;;;;;3.10;2.80;;;7.40;77.80;;;;;;5045135;28;20685;-75
2021/11/19 08:45:42;;;;;;;2.40;2.20;;;7.40;77.70;;;;;;5043533;28;20279;-75
2021/11/19 08:48:08;;;;;;;3.10;2.80;;;7.20;77.90;;;;;;5044590;28;20898;-75
2021/11/19 08:50:38;;;;;;;2.27;2.13;;;7.10;78.00;;;;;;5046170;28;20187;-75
2021/11/19 08:53:04;;;;;;;3.27;3.07;;;7.10;78.10;;;;;;5044498;28;20595;-75
2021/11/19 08:55:30;;;;;;;5.50;3.13;;;7.10;78.40;;;;;;5046740;28;20195;-75
2021/11/19 08:57:57;;;;;;;3.00;2.70;;;7.10;78.40;;;;;;5047105;28;20239;-75
2021/11/19 09:00:33;;;;;;;3.90;3.60;;;7.10;78.60;;;;;;5043405;28;20187;-75
2021/11/19 09:02:59;;;;;;;3.13;2.93;;;7.20;78.70;;;;;;5044465;28;20214;-75
2021/11/19 09:05:27;;;;;;;4.00;3.50;;;7.30;78.50;;;;;;5044001;28;20237;-75
2021/11/19 09:07:53;;;;;;;4.23;3.50;;;7.40;78.20;;;;;;5044008;28;20276;-75
2021/11/19 09:10:19;;;;;;;5.47;3.17;;;7.40;77.90;;;;;;5042103;28;20740;-76
2021/11/19 09:12:45;;;;;;;3.50;3.20;;;7.30;77.90;;;;;;5044477;28;20273;-74
2021/11/19 09:15:14;;;;;;;3.37;3.07;;;7.30;77.90;;;;;;5044400;28;20993;-75
2021/11/19 09:18:17;;;;;;;3.60;3.33;;;7.50;77.90;;;;;;5045554;28;20291;-75
2021/11/19 09:20:51;;;;;;;2.53;2.43;;;7.50;77.50;;;;;;5044862;28;20179;-75
2021/11/19 09:23:23;;;;;;;4.67;3.13;;;7.60;77.10;;;;;;5044656;28;20756;-75
2021/11/19 09:25:51;;;;;;;2.87;2.73;;;7.80;76.90;;;;;;5043337;28;20187;-76
2021/11/19 09:28:20;;;;;;;6.30;2.53;;;7.90;76.40;;;;;;5044397;28;20184;-75
2021/11/19 09:30:49;;;;;;;4.80;2.77;;;8.00;75.20;;;;;;5040588;28;20658;-76
2021/11/19 09:33:19;;;;;;;3.07;2.73;;;7.90;75.40;;;;;;5045308;28;20985;-75
2021/11/19 09:35:45;;;;;;;3.13;2.90;;;7.90;75.80;;;;;;5041570;28;20176;-75
2021/11/19 09:38:12;;;;;;;2.40;2.20;;;8.00;75.60;;;;;;5044140;28;20247;-75
2021/11/19 09:40:40;;;;;;;4.67;2.77;;;8.10;75.50;;;;;;5041528;28;20184;-75
2021/11/19 09:43:41;;;;;;;2.80;2.60;;;8.30;75.30;;;;;;5042060;28;20219;-75
2021/11/19 09:46:35;;;;;;;3.40;2.60;;;8.40;74.70;;;;;;5002001;28;20257;-75
2021/11/19 09:49:25;;;;;;;3.00;2.47;;;8.40;74.50;;;;;;5002583;28;20189;-76
2021/11/19 09:52:15;;;;;;;2.13;2.10;;;8.40;74.50;;;;;;4999906;28;20189;-75
2021/11/19 09:54:41;;;;;;;4.37;2.27;;;8.40;74.70;;;;;;5000918;28;20185;-74
2021/11/19 09:57:21;;;;;;;3.97;2.77;;;8.70;74.50;;;;;;5000355;28;20192;-74
2021/11/19 10:00:19;;;;;;;1.67;1.57;;;9.00;73.80;;;;;;5000633;28;20205;-74
2021/11/19 10:02:50;;;;;;;1.53;1.50;;;9.40;71.70;;;;;;4999933;28;20189;-74
2021/11/19 10:05:35;;;;;;;3.60;1.57;;;9.70;70.50;;;;;;5000201;28;20268;-75
2021/11/19 10:08:01;;;;;;;1.73;1.50;;;10.00;70.30;;;;;;5001009;28;20577;-76
2021/11/19 10:10:56;;;;;;;3.13;2.03;;;10.90;68.40;;;;;;5000001;28;20200;-74
2021/11/19 10:13:22;;;;;;;1.83;1.63;;;11.50;67.40;;;;;;5001119;28;20803;-75
2021/11/19 10:16:07;;;;;;;1.80;1.70;;;11.60;67.20;;;;;;4987252;28;20200;-75
2021/11/19 10:18:39;;;;;;;2.28;2.17;;;11.50;66.20;;;;;;5002756;28;20246;-75
2021/11/19 10:21:18;;;;;;;1.67;1.58;;;11.30;66.70;;;;;;5013374;28;20585;-75
2021/11/19 10:23:51;;;;;;;1.92;1.83;;;11.40;67.30;;;;;;5043110;28;20214;-75
2021/11/19 10:26:34;;;;;;;2.63;2.45;;;11.70;66.20;;;;;;5043611;28;20191;-75
2021/11/19 10:29:24;;;;;;;2.30;2.10;;;11.70;66.00;;;;;;5043964;28;20222;-75
2021/11/19 10:31:52;;;;;;;2.17;1.95;;;11.70;65.70;;;;;;4966319;28;20203;-76
2021/11/19 10:35:05;;;;;;;2.55;2.35;;;11.50;66.00;;;;;;4984036;28;20655;-75
2021/11/19 10:38:14;;;;;;;3.33;2.00;;;11.20;66.20;;;;;;4963205;28;20198;-74
2021/11/19 10:40:58;;;;;;;3.70;2.58;;;11.00;66.50;;;;;;4895561;29;20960;-75
2021/11/19 10:43:33;;;;;;;2.22;2.03;;;10.80;66.90;;;;;;4892447;29;20237;-75
2021/11/19 10:46:37;;;;;;;2.95;1.90;;;10.60;67.20;;;;;;4889546;29;20201;-76
2021/11/19 10:49:15;;;;;;;3.03;2.83;;;10.40;67.50;;;;;;4894805;29;20196;-76
2021/11/19 10:52:04;;;;;;;1.67;1.58;;;10.10;67.80;;;;;;4893344;29;20219;-76
2021/11/19 10:54:53;;;;;;;1.90;1.77;;;10.00;68.00;;;;;;4893947;29;20723;-76
2021/11/19 10:58:10;;;;;;;1.67;1.58;;;9.70;68.60;;;;;;4889175;29;20475;-76
2021/11/19 11:00:59;;;;;;;3.53;2.47;;;9.70;68.60;;;;;;4816749;29;20204;-76
2021/11/19 11:03:33;;;;;;;1.80;1.70;;;9.70;69.00;;;;;;4775290;29;20208;-76
2021/11/19 11:06:06;;;;;;;1.90;1.80;;;9.80;69.00;;;;;;4776028;29;20232;-76
2021/11/19 11:08:43;;;;;;;1.37;1.27;;;10.00;68.80;;;;;;4785912;29;20207;-76
2021/11/19 11:11:37;;;;;;;2.03;1.93;;;10.00;68.40;;;;;;4812222;29;20318;-76
2021/11/19 11:14:09;;;;;;;1.50;1.50;;;9.70;67.80;;;;;;4810026;29;20294;-76
2021/11/19 11:16:39;;;;;;;2.43;1.87;;;9.50;68.70;;;;;;4811921;29;20200;-76
2021/11/19 11:19:11;;;;;;;1.80;1.70;;;9.30;69.10;;;;;;4885369;29;20260;-76
2021/11/19 11:21:38;;;;;;;2.27;1.90;;;;;;;;;;4884746;29;20193;-76
2021/11/19 11:24:21;;;;;;;1.60;1.50;;;9.00;69.80;;;;;;4884480;29;20197;-76
2021/11/19 11:26:52;;;;;;;1.83;1.57;;;8.80;70.20;;;;;;4883574;29;20319;-76
2021/11/19 11:29:18;;;;;;;3.50;2.37;;;8.70;70.50;;;;;;4884643;29;20288;-76
2021/11/19 11:31:56;;;;;;;2.63;2.43;;;8.60;70.70;;;;;;4885355;29;20264;-76
2021/11/19 11:34:26;;;;;;;2.17;2.07;;;8.60;70.80;;;;;;4885557;29;20269;-76
2021/11/19 11:37:26;;;;;;;4.40;2.20;;;8.80;70.80;;;;;;4942142;28;20230;-76
2021/11/19 11:40:15;;;;;;;2.07;1.77;;;8.90;70.80;;;;;;4929562;28;20205;-76
2021/11/19 11:42:51;;;;;;;4.47;2.60;;;8.80;71.10;;;;;;4942760;29;20207;-76
2021/11/19 11:45:22;;;;;;;4.20;2.13;;;8.70;71.40;;;;;;4939368;28;20701;-76
2021/11/19 11:47:51;;;;;;;3.30;2.53;;;8.60;71.90;;;;;;4942649;28;20195;-76
2021/11/19 11:50:25;;;;;;;1.83;1.73;;;8.60;71.90;;;;;;4941040;28;20195;-76
2021/11/19 11:53:06;;;;;;;2.90;2.67;;;8.80;71.70;;;;;;4941337;28;20191;-76
2021/11/19 11:55:49;;;;;;;5.60;2.43;;;8.90;71.70;;;;;;4940338;29;20195;-76
2021/11/19 11:58:29;;;;;;;4.63;1.77;;;9.20;70.80;;;;;;4940704;29;20345;-76
2021/11/19 12:01:00;;;;;;;2.23;2.03;;;9.50;70.40;;;;;;4940656;29;20199;-77
2021/11/19 12:03:38;;;;;;;2.00;1.90;;;10.00;69.20;;;;;;4924752;29;20862;-76
2021/11/19 12:06:05;;;;;;;2.13;1.83;;;;;;;;;;4942320;28;20709;-76
2021/11/19 12:08:49;;;;;;;3.50;2.77;;;10.70;66.90;;;;;;4942322;29;20263;-75
2021/11/19 12:11:36;;;;;;;2.77;2.57;;;10.70;66.80;;;;;;4947088;28;20277;-75
2021/11/19 12:14:20;;;;;;;2.20;2.10;;;10.60;67.00;;;;;;4943174;29;20198;-76
2021/11/19 12:17:00;;;;;;;2.87;2.60;;;10.50;67.40;;;;;;4936032;28;20186;-76
2021/11/19 12:19:50;;;;;;;2.83;2.63;;;10.20;67.90;;;;;;4983329;28;20314;-76
2021/11/19 12:22:16;;;;;;;4.25;2.28;;;9.80;68.50;;;;;;5046265;28;20191;-75
2021/11/19 12:25:00;;;;;;;2.80;2.20;;;9.60;68.90;;;;;;5046587;28;20291;-76
2021/11/19 12:27:42;;;;;;;3.23;2.93;;;9.40;69.50;;;;;;5045187;28;20180;-76
2021/11/19 12:30:14;;;;;;;6.70;2.87;;;9.30;69.60;;;;;;5043879;28;20183;-76
2021/11/19 12:32:49;;;;;;;2.63;2.43;;;9.20;69.50;;;;;;5044643;28;20210;-74
2021/11/19 12:35:30;;;;;;;2.70;2.33;;;9.30;69.70;;;;;;5046539;28;20579;-76
2021/11/19 12:38:05;;;;;;;2.30;2.10;;;9.70;69.70;;;;;;5046091;28;20298;-76
2021/11/19 12:40:46;;;;;;;3.13;2.90;;;9.80;68.80;;;;;;5042460;28;20262;-76
2021/11/19 12:43:38;;;;;;;6.10;3.03;;;9.60;69.10;;;;;;5046498;28;20198;-76
2021/11/19 12:46:15;;;;;;;2.83;2.63;;;9.40;69.50;;;;;;5046262;28;20187;-76
2021/11/19 12:49:11;;;;;;;2.60;1.90;;;9.00;70.30;;;;;;5046349;28;20179;-74
2021/11/19 12:51:51;;;;;;;4.03;2.50;;;9.00;70.50;;;;;;5046855;28;20669;-74
2021/11/19 12:54:20;;;;;;;2.20;2.10;;;8.80;70.90;;;;;;5046524;28;20187;-75
2021/11/19 12:57:08;;;;;;;3.03;2.83;;;8.70;71.10;;;;;;5045917;28;20648;-74
2021/11/19 12:59:52;;;;;;;3.10;2.83;;;8.60;71.20;;;;;;5046378;28;20214;-74
2021/11/19 13:02:38;;;;;;;2.53;2.33;;;8.30;71.40;;;;;;5047171;28;20172;-75
2021/11/19 13:05:07;;;;;;;2.50;2.40;;;8.10;72.00;;;;;;5043435;28;20644;-75
2021/11/19 13:07:46;;;;;;;2.73;2.20;;;8.10;72.30;;;;;;5045415;28;20179;-76
2021/11/19 13:10:14;;;;;;;2.03;1.80;;;7.90;72.90;;;;;;5044754;28;20179;-75
2021/11/19 13:13:02;;;;;;;3.77;1.97;;;7.80;73.10;;;;;;5046261;28;20188;-75
2021/11/19 13:15:38;;;;;;;5.07;2.50;;;7.80;73.50;;;;;;5045911;28;20176;-75
2021/11/19 13:18:16;;;;;;;2.60;2.40;;;7.70;73.70;;;;;;5045392;28;20241;-75
2021/11/19 13:20:45;;;;;;;3.40;3.10;;;7.70;73.90;;;;;;5043639;28;20218;-75
2021/11/19 13:23:31;;;;;;;2.43;2.23;;;7.60;74.10;;;;;;5043921;28;20281;-75